sensor_id;sensor_type;location;lat;lon;timestamp;P1;durP1;ratioP1;P2;durP2;ratioP2
53267;SDS011;39156;51.176;6.738;2022-08-24T00:01:20;28.85;;;27.15;;
53267;SDS011;39156;51.176;6.738;2022-08-24T00:03:47;28.20;;;26.25;;
53267;SDS011;39156;51.176;6.738;2022-08-24T00:08:43;30.70;;;28.65;;
53267;SDS011;39156;51.176;6.738;2022-08-24T00:11:11;28.80;;;27.02;;
53267;SDS011;39156;51.176;6.738;2022-08-24T00:13:37;28.63;;;26.93;;
53267;SDS011;39156;51.176;6.738;2022-08-24T00:16:07;29.05;;;27.33;;
53267;SDS011;39156;51.176;6.738;2022-08-24T00:18:33;29.38;;;27.48;;
53267;SDS011;39156;51.176;6.738;2022-08-24T00:21:00;28.73;;;27.02;;
53267;SDS011;39156;51.176;6.738;2022-08-24T00:23:26;28.92;;;27.02;;
53267;SDS011;39156;51.176;6.738;2022-08-24T00:25:53;29.05;;;27.35;;
53267;SDS011;39156;51.176;6.738;2022-08-24T00:28:19;30.65;;;28.50;;
53267;SDS011;39156;51.176;6.738;2022-08-24T00:30:45;28.40;;;26.70;;
53267;SDS011;39156;51.176;6.738;2022-08-24T00:33:11;29.27;;;27.63;;
53267;SDS011;39156;51.176;6.738;2022-08-24T00:35:36;28.37;;;26.33;;
53267;SDS011;39156;51.176;6.738;2022-08-24T00:40:31;28.60;;;26.90;;
53267;SDS011;39156;51.176;6.738;2022-08-24T00:43:02;29.92;;;28.23;;
53267;SDS011;39156;51.176;6.738;2022-08-24T00:45:30;29.08;;;27.17;;
53267;SDS011;39156;51.176;6.738;2022-08-24T00:48:21;29.60;;;27.83;;
53267;SDS011;39156;51.176;6.738;2022-08-24T00:50:56;30.27;;;28.27;;
53267;SDS011;39156;51.176;6.738;2022-08-24T00:53:47;29.25;;;27.63;;
53267;SDS011;39156;51.176;6.738;2022-08-24T00:56:19;28.38;;;26.58;;
53267;SDS011;39156;51.176;6.738;2022-08-24T00:58:51;30.10;;;28.30;;
53267;SDS011;39156;51.176;6.738;2022-08-24T01:01:30;29.52;;;27.60;;
53267;SDS011;39156;51.176;6.738;2022-08-24T01:03:58;29.17;;;27.48;;
53267;SDS011;39156;51.176;6.738;2022-08-24T01:06:24;29.83;;;27.35;;
53267;SDS011;39156;51.176;6.738;2022-08-24T01:08:50;31.08;;;28.98;;
53267;SDS011;39156;51.176;6.738;2022-08-24T01:11:20;30.00;;;28.20;;
53267;SDS011;39156;51.176;6.738;2022-08-24T01:13:50;29.80;;;27.70;;
53267;SDS011;39156;51.176;6.738;2022-08-24T01:16:17;29.13;;;27.15;;
53267;SDS011;39156;51.176;6.738;2022-08-24T01:19:05;30.17;;;28.43;;
53267;SDS011;39156;51.176;6.738;2022-08-24T01:21:49;30.25;;;28.15;;
53267;SDS011;39156;51.176;6.738;2022-08-24T01:24:36;28.60;;;26.88;;
53267;SDS011;39156;51.176;6.738;2022-08-24T01:27:02;28.53;;;26.93;;
53267;SDS011;39156;51.176;6.738;2022-08-24T01:31:55;28.48;;;26.80;;
53267;SDS011;39156;51.176;6.738;2022-08-24T01:36:48;29.52;;;27.73;;
53267;SDS011;39156;51.176;6.738;2022-08-24T01:39:22;27.42;;;25.92;;
53267;SDS011;39156;51.176;6.738;2022-08-24T01:41:54;28.73;;;27.13;;
53267;SDS011;39156;51.176;6.738;2022-08-24T01:44:21;29.50;;;27.80;;
53267;SDS011;39156;51.176;6.738;2022-08-24T01:46:50;29.90;;;28.20;;
53267;SDS011;39156;51.176;6.738;2022-08-24T01:49:18;28.42;;;26.63;;
53267;SDS011;39156;51.176;6.738;2022-08-24T01:51:48;29.80;;;27.60;;
53267;SDS011;39156;51.176;6.738;2022-08-24T01:54:13;29.97;;;27.90;;
53267;SDS011;39156;51.176;6.738;2022-08-24T01:56:40;27.60;;;26.08;;
53267;SDS011;39156;51.176;6.738;2022-08-24T01:59:06;28.17;;;26.42;;
53267;SDS011;39156;51.176;6.738;2022-08-24T02:01:33;28.08;;;26.45;;
53267;SDS011;39156;51.176;6.738;2022-08-24T02:04:08;28.85;;;27.25;;
53267;SDS011;39156;51.176;6.738;2022-08-24T02:06:34;30.67;;;28.98;;
53267;SDS011;39156;51.176;6.738;2022-08-24T02:09:02;29.55;;;27.75;;
53267;SDS011;39156;51.176;6.738;2022-08-24T02:11:28;28.05;;;26.45;;
53267;SDS011;39156;51.176;6.738;2022-08-24T02:13:54;28.85;;;27.05;;
53267;SDS011;39156;51.176;6.738;2022-08-24T02:16:20;29.07;;;27.27;;
53267;SDS011;39156;51.176;6.738;2022-08-24T02:18:46;29.08;;;27.15;;
53267;SDS011;39156;51.176;6.738;2022-08-24T02:21:12;29.93;;;27.73;;
53267;SDS011;39156;51.176;6.738;2022-08-24T02:23:38;30.33;;;28.63;;
53267;SDS011;39156;51.176;6.738;2022-08-24T02:26:06;28.98;;;26.95;;
53267;SDS011;39156;51.176;6.738;2022-08-24T02:28:33;29.90;;;27.95;;
53267;SDS011;39156;51.176;6.738;2022-08-24T02:31:00;30.15;;;28.27;;
53267;SDS011;39156;51.176;6.738;2022-08-24T02:33:30;30.15;;;28.35;;
53267;SDS011;39156;51.176;6.738;2022-08-24T02:35:59;29.85;;;27.80;;
53267;SDS011;39156;51.176;6.738;2022-08-24T02:38:26;28.48;;;26.92;;
53267;SDS011;39156;51.176;6.738;2022-08-24T02:40:52;28.15;;;26.52;;
53267;SDS011;39156;51.176;6.738;2022-08-24T02:43:18;30.57;;;28.67;;
53267;SDS011;39156;51.176;6.738;2022-08-24T02:45:44;30.03;;;28.30;;
53267;SDS011;39156;51.176;6.738;2022-08-24T02:48:11;29.65;;;28.02;;
53267;SDS011;39156;51.176;6.738;2022-08-24T02:50:38;31.83;;;29.92;;
53267;SDS011;39156;51.176;6.738;2022-08-24T02:53:06;27.63;;;26.13;;
53267;SDS011;39156;51.176;6.738;2022-08-24T02:55:33;29.65;;;27.80;;
53267;SDS011;39156;51.176;6.738;2022-08-24T02:57:59;30.90;;;28.95;;
53267;SDS011;39156;51.176;6.738;2022-08-24T03:00:25;29.77;;;28.17;;
53267;SDS011;39156;51.176;6.738;2022-08-24T03:02:52;31.42;;;29.55;;
53267;SDS011;39156;51.176;6.738;2022-08-24T03:05:19;29.20;;;27.42;;
53267;SDS011;39156;51.176;6.738;2022-08-24T03:07:47;29.70;;;28.00;;
53267;SDS011;39156;51.176;6.738;2022-08-24T03:10:13;28.90;;;26.90;;
53267;SDS011;39156;51.176;6.738;2022-08-24T03:12:39;28.00;;;26.23;;
53267;SDS011;39156;51.176;6.738;2022-08-24T03:15:07;29.25;;;27.63;;
53267;SDS011;39156;51.176;6.738;2022-08-24T03:17:35;28.95;;;27.25;;
53267;SDS011;39156;51.176;6.738;2022-08-24T03:20:03;33.00;;;31.13;;
53267;SDS011;39156;51.176;6.738;2022-08-24T03:22:31;28.15;;;26.52;;
53267;SDS011;39156;51.176;6.738;2022-08-24T03:24:57;28.30;;;26.60;;
53267;SDS011;39156;51.176;6.738;2022-08-24T03:27:23;29.00;;;27.40;;
53267;SDS011;39156;51.176;6.738;2022-08-24T03:29:50;28.02;;;25.92;;
53267;SDS011;39156;51.176;6.738;2022-08-24T03:32:15;29.27;;;27.57;;
53267;SDS011;39156;51.176;6.738;2022-08-24T03:34:41;27.50;;;25.90;;
53267;SDS011;39156;51.176;6.738;2022-08-24T03:37:07;28.52;;;26.70;;
53267;SDS011;39156;51.176;6.738;2022-08-24T03:39:33;29.63;;;27.87;;
53267;SDS011;39156;51.176;6.738;2022-08-24T03:41:59;29.03;;;27.07;;
53267;SDS011;39156;51.176;6.738;2022-08-24T03:44:25;28.65;;;26.98;;
53267;SDS011;39156;51.176;6.738;2022-08-24T03:46:51;27.47;;;25.93;;
53267;SDS011;39156;51.176;6.738;2022-08-24T03:49:17;29.27;;;27.40;;
53267;SDS011;39156;51.176;6.738;2022-08-24T03:51:43;30.27;;;28.58;;
53267;SDS011;39156;51.176;6.738;2022-08-24T03:54:10;29.43;;;27.83;;
53267;SDS011;39156;51.176;6.738;2022-08-24T03:56:37;29.42;;;27.70;;
53267;SDS011;39156;51.176;6.738;2022-08-24T03:59:04;29.85;;;27.98;;
53267;SDS011;39156;51.176;6.738;2022-08-24T04:01:31;30.02;;;28.30;;
53267;SDS011;39156;51.176;6.738;2022-08-24T04:03:58;30.30;;;28.48;;
53267;SDS011;39156;51.176;6.738;2022-08-24T04:06:24;29.05;;;27.30;;
53267;SDS011;39156;51.176;6.738;2022-08-24T04:11:21;28.65;;;26.80;;
53267;SDS011;39156;51.176;6.738;2022-08-24T04:13:50;30.48;;;28.25;;
53267;SDS011;39156;51.176;6.738;2022-08-24T04:16:20;29.90;;;28.00;;
53267;SDS011;39156;51.176;6.738;2022-08-24T04:18:46;30.73;;;28.73;;
53267;SDS011;39156;51.176;6.738;2022-08-24T04:21:20;29.48;;;27.88;;
53267;SDS011;39156;51.176;6.738;2022-08-24T04:23:49;28.75;;;27.08;;
53267;SDS011;39156;51.176;6.738;2022-08-24T04:26:19;30.05;;;27.90;;
53267;SDS011;39156;51.176;6.738;2022-08-24T04:28:46;28.25;;;26.65;;
53267;SDS011;39156;51.176;6.738;2022-08-24T04:31:13;28.45;;;26.92;;
53267;SDS011;39156;51.176;6.738;2022-08-24T04:33:39;28.40;;;26.80;;
53267;SDS011;39156;51.176;6.738;2022-08-24T04:36:06;29.30;;;27.60;;
53267;SDS011;39156;51.176;6.738;2022-08-24T04:38:33;29.50;;;27.70;;
53267;SDS011;39156;51.176;6.738;2022-08-24T04:43:30;29.83;;;27.92;;
53267;SDS011;39156;51.176;6.738;2022-08-24T04:45:55;30.07;;;28.40;;
53267;SDS011;39156;51.176;6.738;2022-08-24T04:48:21;27.97;;;26.27;;
53267;SDS011;39156;51.176;6.738;2022-08-24T04:50:47;29.13;;;27.02;;
53267;SDS011;39156;51.176;6.738;2022-08-24T04:53:13;29.70;;;27.80;;
53267;SDS011;39156;51.176;6.738;2022-08-24T04:55:44;29.70;;;27.85;;
53267;SDS011;39156;51.176;6.738;2022-08-24T04:58:14;28.98;;;27.25;;
53267;SDS011;39156;51.176;6.738;2022-08-24T05:00:41;29.80;;;27.92;;
53267;SDS011;39156;51.176;6.738;2022-08-24T05:03:07;30.45;;;28.58;;
53267;SDS011;39156;51.176;6.738;2022-08-24T05:05:34;29.35;;;27.60;;
53267;SDS011;39156;51.176;6.738;2022-08-24T05:08:06;30.70;;;28.90;;
53267;SDS011;39156;51.176;6.738;2022-08-24T05:12:58;30.10;;;27.65;;
53267;SDS011;39156;51.176;6.738;2022-08-24T05:15:24;29.07;;;27.17;;
53267;SDS011;39156;51.176;6.738;2022-08-24T05:17:49;29.77;;;27.80;;
53267;SDS011;39156;51.176;6.738;2022-08-24T05:20:15;27.07;;;25.37;;
53267;SDS011;39156;51.176;6.738;2022-08-24T05:22:41;28.50;;;26.70;;
53267;SDS011;39156;51.176;6.738;2022-08-24T05:25:07;29.63;;;27.53;;
53267;SDS011;39156;51.176;6.738;2022-08-24T05:27:33;29.45;;;27.48;;
53267;SDS011;39156;51.176;6.738;2022-08-24T05:29:59;27.98;;;26.17;;
53267;SDS011;39156;51.176;6.738;2022-08-24T05:32:25;30.85;;;28.83;;
53267;SDS011;39156;51.176;6.738;2022-08-24T05:34:51;29.20;;;27.10;;
53267;SDS011;39156;51.176;6.738;2022-08-24T05:37:17;30.53;;;28.37;;
53267;SDS011;39156;51.176;6.738;2022-08-24T05:39:42;30.53;;;28.17;;
53267;SDS011;39156;51.176;6.738;2022-08-24T05:42:08;31.73;;;29.20;;
53267;SDS011;39156;51.176;6.738;2022-08-24T05:44:34;28.33;;;26.00;;
53267;SDS011;39156;51.176;6.738;2022-08-24T05:47:00;31.17;;;28.77;;
53267;SDS011;39156;51.176;6.738;2022-08-24T05:51:52;31.23;;;28.92;;
53267;SDS011;39156;51.176;6.738;2022-08-24T05:54:19;31.65;;;29.02;;
53267;SDS011;39156;51.176;6.738;2022-08-24T05:56:46;30.80;;;28.67;;
53267;SDS011;39156;51.176;6.738;2022-08-24T05:59:13;30.15;;;27.13;;
53267;SDS011;39156;51.176;6.738;2022-08-24T06:01:41;29.88;;;27.88;;
53267;SDS011;39156;51.176;6.738;2022-08-24T06:04:07;29.30;;;27.30;;
53267;SDS011;39156;51.176;6.738;2022-08-24T06:06:32;29.70;;;27.67;;
53267;SDS011;39156;51.176;6.738;2022-08-24T06:08:58;28.17;;;26.30;;
53267;SDS011;39156;51.176;6.738;2022-08-24T06:11:30;28.60;;;26.60;;
53267;SDS011;39156;51.176;6.738;2022-08-24T06:14:00;29.58;;;27.77;;
53267;SDS011;39156;51.176;6.738;2022-08-24T06:16:35;29.38;;;27.23;;
53267;SDS011;39156;51.176;6.738;2022-08-24T06:19:04;30.58;;;28.60;;
53267;SDS011;39156;51.176;6.738;2022-08-24T06:21:32;28.30;;;26.58;;
53267;SDS011;39156;51.176;6.738;2022-08-24T06:23:58;29.40;;;27.00;;
53267;SDS011;39156;51.176;6.738;2022-08-24T06:26:25;29.83;;;27.83;;
53267;SDS011;39156;51.176;6.738;2022-08-24T06:29:11;29.80;;;27.98;;
53267;SDS011;39156;51.176;6.738;2022-08-24T06:31:37;29.88;;;27.83;;
53267;SDS011;39156;51.176;6.738;2022-08-24T06:34:07;29.15;;;27.25;;
53267;SDS011;39156;51.176;6.738;2022-08-24T06:36:38;28.45;;;26.65;;
53267;SDS011;39156;51.176;6.738;2022-08-24T06:39:05;29.38;;;27.48;;
53267;SDS011;39156;51.176;6.738;2022-08-24T06:41:33;28.05;;;26.15;;
53267;SDS011;39156;51.176;6.738;2022-08-24T06:44:00;27.55;;;25.45;;
53267;SDS011;39156;51.176;6.738;2022-08-24T06:46:25;26.23;;;24.33;;
53267;SDS011;39156;51.176;6.738;2022-08-24T06:48:52;25.60;;;24.00;;
53267;SDS011;39156;51.176;6.738;2022-08-24T06:51:18;24.90;;;23.13;;
53267;SDS011;39156;51.176;6.738;2022-08-24T06:53:46;23.90;;;22.20;;
53267;SDS011;39156;51.176;6.738;2022-08-24T06:56:14;24.25;;;22.55;;
53267;SDS011;39156;51.176;6.738;2022-08-24T06:58:40;23.38;;;21.83;;
53267;SDS011;39156;51.176;6.738;2022-08-24T07:01:10;23.05;;;21.10;;
53267;SDS011;39156;51.176;6.738;2022-08-24T07:03:43;22.50;;;20.88;;
53267;SDS011;39156;51.176;6.738;2022-08-24T07:06:09;22.10;;;20.48;;
53267;SDS011;39156;51.176;6.738;2022-08-24T07:08:37;21.15;;;19.55;;
53267;SDS011;39156;51.176;6.738;2022-08-24T07:11:03;20.33;;;18.95;;
53267;SDS011;39156;51.176;6.738;2022-08-24T07:13:30;20.15;;;18.77;;
53267;SDS011;39156;51.176;6.738;2022-08-24T07:15:56;21.88;;;20.38;;
53267;SDS011;39156;51.176;6.738;2022-08-24T07:18:23;19.75;;;18.45;;
53267;SDS011;39156;51.176;6.738;2022-08-24T07:20:49;19.30;;;18.00;;
53267;SDS011;39156;51.176;6.738;2022-08-24T07:23:15;19.10;;;17.73;;
53267;SDS011;39156;51.176;6.738;2022-08-24T07:25:42;18.50;;;17.25;;
53267;SDS011;39156;51.176;6.738;2022-08-24T07:28:10;18.73;;;17.42;;
53267;SDS011;39156;51.176;6.738;2022-08-24T07:30:37;18.05;;;16.95;;
53267;SDS011;39156;51.176;6.738;2022-08-24T07:33:04;18.88;;;17.58;;
53267;SDS011;39156;51.176;6.738;2022-08-24T07:35:30;18.08;;;16.88;;
53267;SDS011;39156;51.176;6.738;2022-08-24T07:37:57;18.67;;;17.38;;
53267;SDS011;39156;51.176;6.738;2022-08-24T07:40:23;18.63;;;17.42;;
53267;SDS011;39156;51.176;6.738;2022-08-24T07:42:52;18.15;;;16.90;;
53267;SDS011;39156;51.176;6.738;2022-08-24T07:45:20;17.63;;;16.50;;
53267;SDS011;39156;51.176;6.738;2022-08-24T07:47:47;17.90;;;16.70;;
53267;SDS011;39156;51.176;6.738;2022-08-24T07:50:14;17.90;;;16.60;;
53267;SDS011;39156;51.176;6.738;2022-08-24T07:52:42;18.42;;;17.10;;
53267;SDS011;39156;51.176;6.738;2022-08-24T07:55:09;16.88;;;15.55;;
53267;SDS011;39156;51.176;6.738;2022-08-24T07:57:36;17.13;;;16.08;;
53267;SDS011;39156;51.176;6.738;2022-08-24T08:00:04;17.88;;;16.45;;
53267;SDS011;39156;51.176;6.738;2022-08-24T08:02:33;16.33;;;15.25;;
53267;SDS011;39156;51.176;6.738;2022-08-24T08:04:59;16.23;;;15.02;;
53267;SDS011;39156;51.176;6.738;2022-08-24T08:07:25;15.95;;;14.80;;
53267;SDS011;39156;51.176;6.738;2022-08-24T08:09:50;16.60;;;15.25;;
53267;SDS011;39156;51.176;6.738;2022-08-24T08:12:17;16.23;;;14.95;;
53267;SDS011;39156;51.176;6.738;2022-08-24T08:14:43;15.90;;;14.93;;
53267;SDS011;39156;51.176;6.738;2022-08-24T08:17:09;15.85;;;14.75;;
53267;SDS011;39156;51.176;6.738;2022-08-24T08:19:35;16.42;;;15.23;;
53267;SDS011;39156;51.176;6.738;2022-08-24T08:22:01;16.60;;;15.23;;
53267;SDS011;39156;51.176;6.738;2022-08-24T08:24:45;15.90;;;14.90;;
53267;SDS011;39156;51.176;6.738;2022-08-24T08:27:12;16.90;;;15.90;;
53267;SDS011;39156;51.176;6.738;2022-08-24T08:29:41;17.33;;;15.80;;
53267;SDS011;39156;51.176;6.738;2022-08-24T08:32:08;17.20;;;16.10;;
53267;SDS011;39156;51.176;6.738;2022-08-24T08:34:36;16.58;;;15.60;;
53267;SDS011;39156;51.176;6.738;2022-08-24T08:37:01;16.52;;;15.50;;
53267;SDS011;39156;51.176;6.738;2022-08-24T08:39:28;17.45;;;15.93;;
53267;SDS011;39156;51.176;6.738;2022-08-24T08:44:54;16.40;;;15.50;;
53267;SDS011;39156;51.176;6.738;2022-08-24T08:56:41;17.92;;;16.70;;
53267;SDS011;39156;51.176;6.738;2022-08-24T09:02:07;16.63;;;15.43;;
53267;SDS011;39156;51.176;6.738;2022-08-24T09:08:54;16.92;;;15.82;;
53267;SDS011;39156;51.176;6.738;2022-08-24T09:14:20;15.95;;;14.68;;
53267;SDS011;39156;51.176;6.738;2022-08-24T09:17:22;15.85;;;14.43;;
53267;SDS011;39156;51.176;6.738;2022-08-24T09:26:24;17.73;;;16.45;;
53267;SDS011;39156;51.176;6.738;2022-08-24T09:28:57;16.30;;;15.30;;
53267;SDS011;39156;51.176;6.738;2022-08-24T09:35:00;17.02;;;15.98;;
53267;SDS011;39156;51.176;6.738;2022-08-24T09:37:30;15.70;;;14.70;;
53267;SDS011;39156;51.176;6.738;2022-08-24T09:40:23;15.90;;;14.82;;
53267;SDS011;39156;51.176;6.738;2022-08-24T09:46:44;16.30;;;15.30;;
53267;SDS011;39156;51.176;6.738;2022-08-24T09:55:55;15.95;;;14.95;;
53267;SDS011;39156;51.176;6.738;2022-08-24T10:01:32;17.05;;;15.65;;
53267;SDS011;39156;51.176;6.738;2022-08-24T10:07:06;17.35;;;16.25;;
53267;SDS011;39156;51.176;6.738;2022-08-24T10:12:54;17.88;;;16.33;;
53267;SDS011;39156;51.176;6.738;2022-08-24T10:15:37;16.98;;;15.98;;
53267;SDS011;39156;51.176;6.738;2022-08-24T10:28:11;18.58;;;17.48;;
53267;SDS011;39156;51.176;6.738;2022-08-24T10:33:22;20.08;;;18.60;;
53267;SDS011;39156;51.176;6.738;2022-08-24T10:54:34;22.08;;;20.50;;
53267;SDS011;39156;51.176;6.738;2022-08-24T10:57:05;21.27;;;19.73;;
53267;SDS011;39156;51.176;6.738;2022-08-24T11:02:41;21.45;;;20.05;;
53267;SDS011;39156;51.176;6.738;2022-08-24T11:05:11;21.33;;;20.02;;
53267;SDS011;39156;51.176;6.738;2022-08-24T11:07:55;21.52;;;20.05;;
53267;SDS011;39156;51.176;6.738;2022-08-24T11:10:25;21.92;;;20.63;;
53267;SDS011;39156;51.176;6.738;2022-08-24T11:13:12;21.48;;;20.17;;
53267;SDS011;39156;51.176;6.738;2022-08-24T11:15:45;22.15;;;20.48;;
53267;SDS011;39156;51.176;6.738;2022-08-24T11:18:24;21.52;;;20.05;;
53267;SDS011;39156;51.176;6.738;2022-08-24T11:20:52;22.02;;;20.40;;
53267;SDS011;39156;51.176;6.738;2022-08-24T11:23:23;21.55;;;20.25;;
53267;SDS011;39156;51.176;6.738;2022-08-24T11:25:56;21.60;;;20.40;;
53267;SDS011;39156;51.176;6.738;2022-08-24T11:28:31;21.63;;;20.25;;
53267;SDS011;39156;51.176;6.738;2022-08-24T11:31:07;21.17;;;19.77;;
53267;SDS011;39156;51.176;6.738;2022-08-24T11:33:49;21.83;;;20.42;;
53267;SDS011;39156;51.176;6.738;2022-08-24T11:36:24;21.02;;;19.88;;
53267;SDS011;39156;51.176;6.738;2022-08-24T11:39:13;21.63;;;20.17;;
53267;SDS011;39156;51.176;6.738;2022-08-24T11:41:53;20.63;;;19.33;;
53267;SDS011;39156;51.176;6.738;2022-08-24T11:50:51;21.33;;;19.98;;
53267;SDS011;39156;51.176;6.738;2022-08-24T11:53:37;21.15;;;19.70;;
53267;SDS011;39156;51.176;6.738;2022-08-24T11:56:40;22.25;;;20.83;;
53267;SDS011;39156;51.176;6.738;2022-08-24T12:00:00;20.27;;;19.13;;
53267;SDS011;39156;51.176;6.738;2022-08-24T12:13:37;20.70;;;19.60;;
53267;SDS011;39156;51.176;6.738;2022-08-24T12:16:33;20.95;;;19.38;;
53267;SDS011;39156;51.176;6.738;2022-08-24T12:19:17;20.70;;;19.40;;
53267;SDS011;39156;51.176;6.738;2022-08-24T12:21:54;21.25;;;19.85;;
53267;SDS011;39156;51.176;6.738;2022-08-24T12:24:33;20.23;;;19.13;;
53267;SDS011;39156;51.176;6.738;2022-08-24T12:27:13;20.38;;;19.27;;
53267;SDS011;39156;51.176;6.738;2022-08-24T12:30:02;20.42;;;19.33;;
53267;SDS011;39156;51.176;6.738;2022-08-24T12:32:44;20.08;;;18.90;;
53267;SDS011;39156;51.176;6.738;2022-08-24T12:35:21;20.45;;;19.15;;
53267;SDS011;39156;51.176;6.738;2022-08-24T12:43:22;20.35;;;19.25;;
53267;SDS011;39156;51.176;6.738;2022-08-24T12:46:01;20.90;;;19.70;;
53267;SDS011;39156;51.176;6.738;2022-08-24T12:48:33;20.25;;;19.05;;
53267;SDS011;39156;51.176;6.738;2022-08-24T12:51:26;20.10;;;18.90;;
53267;SDS011;39156;51.176;6.738;2022-08-24T12:59:51;20.42;;;19.25;;
53267;SDS011;39156;51.176;6.738;2022-08-24T13:02:40;20.10;;;18.85;;
53267;SDS011;39156;51.176;6.738;2022-08-24T13:05:12;20.50;;;19.20;;
53267;SDS011;39156;51.176;6.738;2022-08-24T13:07:43;20.80;;;19.55;;
53267;SDS011;39156;51.176;6.738;2022-08-24T13:16:09;20.17;;;19.17;;
53267;SDS011;39156;51.176;6.738;2022-08-24T13:31:04;21.30;;;20.10;;
53267;SDS011;39156;51.176;6.738;2022-08-24T13:42:40;21.27;;;19.98;;
53267;SDS011;39156;51.176;6.738;2022-08-24T13:48:16;21.48;;;20.08;;
53267;SDS011;39156;51.176;6.738;2022-08-24T14:02:31;22.05;;;20.05;;
53267;SDS011;39156;51.176;6.738;2022-08-24T14:09:13;21.50;;;20.30;;
53267;SDS011;39156;51.176;6.738;2022-08-24T14:18:02;21.58;;;19.75;;
53267;SDS011;39156;51.176;6.738;2022-08-24T14:20:41;21.63;;;20.38;;
53267;SDS011;39156;51.176;6.738;2022-08-24T14:32:24;20.83;;;19.52;;
53267;SDS011;39156;51.176;6.738;2022-08-24T14:34:34;20.50;;;19.40;;
53267;SDS011;39156;51.176;6.738;2022-08-24T14:37:18;22.67;;;20.52;;
53267;SDS011;39156;51.176;6.738;2022-08-24T14:40:11;20.50;;;19.20;;
53267;SDS011;39156;51.176;6.738;2022-08-24T14:42:54;21.00;;;19.80;;
53267;SDS011;39156;51.176;6.738;2022-08-24T14:45:55;20.70;;;19.60;;
53267;SDS011;39156;51.176;6.738;2022-08-24T15:00:12;20.70;;;19.50;;
53267;SDS011;39156;51.176;6.738;2022-08-24T15:05:23;20.35;;;19.10;;
53267;SDS011;39156;51.176;6.738;2022-08-24T15:08:05;21.27;;;20.08;;
53267;SDS011;39156;51.176;6.738;2022-08-24T15:18:48;21.02;;;19.73;;
53267;SDS011;39156;51.176;6.738;2022-08-24T15:21:47;22.15;;;20.90;;
53267;SDS011;39156;51.176;6.738;2022-08-24T15:24:32;20.42;;;19.33;;
53267;SDS011;39156;51.176;6.738;2022-08-24T15:30:25;21.15;;;19.95;;
53267;SDS011;39156;51.176;6.738;2022-08-24T15:33:06;21.60;;;20.30;;
53267;SDS011;39156;51.176;6.738;2022-08-24T15:35:36;21.98;;;20.65;;
53267;SDS011;39156;51.176;6.738;2022-08-24T15:38:21;20.88;;;19.67;;
53267;SDS011;39156;51.176;6.738;2022-08-24T15:41:04;20.65;;;19.45;;
53267;SDS011;39156;51.176;6.738;2022-08-24T15:43:40;21.17;;;19.73;;
53267;SDS011;39156;51.176;6.738;2022-08-24T15:46:17;20.80;;;19.70;;
53267;SDS011;39156;51.176;6.738;2022-08-24T15:48:47;20.98;;;19.77;;
53267;SDS011;39156;51.176;6.738;2022-08-24T15:51:29;22.00;;;20.60;;
53267;SDS011;39156;51.176;6.738;2022-08-24T15:56:50;21.30;;;20.10;;
53267;SDS011;39156;51.176;6.738;2022-08-24T16:02:24;21.02;;;19.85;;
53267;SDS011;39156;51.176;6.738;2022-08-24T16:04:59;21.55;;;20.25;;
53267;SDS011;39156;51.176;6.738;2022-08-24T16:10:28;21.17;;;20.05;;
53267;SDS011;39156;51.176;6.738;2022-08-24T16:15:48;21.98;;;20.77;;
53267;SDS011;39156;51.176;6.738;2022-08-24T16:18:27;21.73;;;20.40;;
53267;SDS011;39156;51.176;6.738;2022-08-24T16:21:14;22.08;;;20.88;;
53267;SDS011;39156;51.176;6.738;2022-08-24T16:23:52;21.33;;;20.10;;
53267;SDS011;39156;51.176;6.738;2022-08-24T16:26:26;22.05;;;20.70;;
53267;SDS011;39156;51.176;6.738;2022-08-24T16:34:43;21.50;;;20.30;;
53267;SDS011;39156;51.176;6.738;2022-08-24T16:37:13;21.67;;;20.38;;
53267;SDS011;39156;51.176;6.738;2022-08-24T16:39:40;21.05;;;19.85;;
53267;SDS011;39156;51.176;6.738;2022-08-24T16:42:09;21.25;;;20.02;;
53267;SDS011;39156;51.176;6.738;2022-08-24T16:44:42;21.05;;;19.95;;
53267;SDS011;39156;51.176;6.738;2022-08-24T16:47:08;21.88;;;20.67;;
53267;SDS011;39156;51.176;6.738;2022-08-24T16:49:35;21.30;;;20.10;;
53267;SDS011;39156;51.176;6.738;2022-08-24T16:52:02;21.38;;;20.08;;
53267;SDS011;39156;51.176;6.738;2022-08-24T16:54:29;21.38;;;20.13;;
53267;SDS011;39156;51.176;6.738;2022-08-24T16:56:58;20.80;;;19.60;;
53267;SDS011;39156;51.176;6.738;2022-08-24T16:59:32;20.63;;;19.45;;
53267;SDS011;39156;51.176;6.738;2022-08-24T17:01:59;19.98;;;18.77;;
53267;SDS011;39156;51.176;6.738;2022-08-24T17:04:24;20.80;;;19.50;;
53267;SDS011;39156;51.176;6.738;2022-08-24T17:06:51;20.15;;;19.05;;
53267;SDS011;39156;51.176;6.738;2022-08-24T17:09:18;21.90;;;20.23;;
53267;SDS011;39156;51.176;6.738;2022-08-24T17:11:44;20.88;;;19.45;;
53267;SDS011;39156;51.176;6.738;2022-08-24T17:14:11;21.63;;;20.23;;
53267;SDS011;39156;51.176;6.738;2022-08-24T17:16:38;20.73;;;19.63;;
53267;SDS011;39156;51.176;6.738;2022-08-24T17:19:08;21.23;;;19.58;;
53267;SDS011;39156;51.176;6.738;2022-08-24T17:21:38;20.88;;;19.58;;
53267;SDS011;39156;51.176;6.738;2022-08-24T17:24:05;22.17;;;20.88;;
53267;SDS011;39156;51.176;6.738;2022-08-24T17:26:31;21.38;;;20.17;;
53267;SDS011;39156;51.176;6.738;2022-08-24T17:28:57;20.77;;;19.65;;
53267;SDS011;39156;51.176;6.738;2022-08-24T17:31:26;22.25;;;20.77;;
53267;SDS011;39156;51.176;6.738;2022-08-24T17:33:54;21.38;;;20.17;;
53267;SDS011;39156;51.176;6.738;2022-08-24T17:36:20;21.33;;;20.00;;
53267;SDS011;39156;51.176;6.738;2022-08-24T17:38:48;21.85;;;20.65;;
53267;SDS011;39156;51.176;6.738;2022-08-24T17:41:16;22.00;;;20.80;;
53267;SDS011;39156;51.176;6.738;2022-08-24T17:46:08;22.25;;;20.90;;
53267;SDS011;39156;51.176;6.738;2022-08-24T17:48:35;22.75;;;21.45;;
53267;SDS011;39156;51.176;6.738;2022-08-24T17:51:01;21.88;;;20.67;;
53267;SDS011;39156;51.176;6.738;2022-08-24T17:53:27;22.17;;;20.63;;
53267;SDS011;39156;51.176;6.738;2022-08-24T17:58:18;23.55;;;22.15;;
53267;SDS011;39156;51.176;6.738;2022-08-24T18:03:10;22.83;;;21.52;;
53267;SDS011;39156;51.176;6.738;2022-08-24T18:05:36;22.90;;;21.60;;
53267;SDS011;39156;51.176;6.738;2022-08-24T18:10:28;23.60;;;22.13;;
53267;SDS011;39156;51.176;6.738;2022-08-24T18:12:56;23.10;;;21.70;;
53267;SDS011;39156;51.176;6.738;2022-08-24T18:15:24;24.48;;;22.95;;
53267;SDS011;39156;51.176;6.738;2022-08-24T18:17:53;23.27;;;21.98;;
53267;SDS011;39156;51.176;6.738;2022-08-24T18:22:50;22.88;;;21.27;;
53267;SDS011;39156;51.176;6.738;2022-08-24T18:30:16;24.13;;;22.65;;
53267;SDS011;39156;51.176;6.738;2022-08-24T18:32:46;23.90;;;22.40;;
53267;SDS011;39156;51.176;6.738;2022-08-24T18:35:12;24.33;;;22.65;;
53267;SDS011;39156;51.176;6.738;2022-08-24T18:37:38;24.25;;;22.80;;
53267;SDS011;39156;51.176;6.738;2022-08-24T18:40:04;23.63;;;21.98;;
53267;SDS011;39156;51.176;6.738;2022-08-24T18:42:30;23.95;;;22.25;;
53267;SDS011;39156;51.176;6.738;2022-08-24T18:44:56;23.23;;;21.77;;
53267;SDS011;39156;51.176;6.738;2022-08-24T18:47:25;23.27;;;21.75;;
53267;SDS011;39156;51.176;6.738;2022-08-24T18:49:50;24.90;;;23.25;;
53267;SDS011;39156;51.176;6.738;2022-08-24T18:52:16;25.30;;;23.80;;
53267;SDS011;39156;51.176;6.738;2022-08-24T18:54:43;26.48;;;24.38;;
53267;SDS011;39156;51.176;6.738;2022-08-24T18:57:12;25.20;;;23.65;;